createdAt,value
2019-06-27T00:03:36.302Z,97338.62
2019-06-27T00:08:31.161Z,97328.73
2019-06-27T00:13:25.822Z,97342.73
2019-06-27T00:18:20.433Z,97346.05
2019-06-27T00:23:15.048Z,97344.45
2019-06-27T00:28:09.774Z,97350.96
2019-06-27T00:33:04.468Z,97350.70
2019-06-27T00:37:59.096Z,97350.19
2019-06-27T00:42:53.689Z,97355.52
2019-06-27T00:47:48.300Z,97349.97
2019-06-27T00:52:43.074Z,97339.79
2019-06-27T00:57:37.824Z,97346.89
2019-06-27T01:02:32.417Z,97342.69
2019-06-27T01:07:27.029Z,97345.17
2019-06-27T01:12:21.652Z,97341.00
2019-06-27T01:17:16.243Z,97339.73
2019-06-27T01:22:10.926Z,97340.55
2019-06-27T01:27:05.524Z,97339.48
2019-06-27T01:32:00.139Z,97344.08
2019-06-27T01:36:54.816Z,97349.66
2019-06-27T01:41:49.413Z,97345.48
2019-06-27T01:46:44.028Z,97331.06
2019-06-27T01:51:38.648Z,97333.47
2019-06-27T01:56:33.251Z,97335.95
2019-06-27T02:01:27.867Z,97332.84
2019-06-27T02:06:22.479Z,97335.09
2019-06-27T02:11:17.141Z,97332.70
2019-06-27T02:16:11.748Z,97340.23
2019-06-27T02:21:06.365Z,97342.90
2019-06-27T02:26:00.997Z,97342.41
2019-06-27T02:30:55.592Z,97339.23
2019-06-27T02:35:50.201Z,97337.58
2019-06-27T02:40:44.902Z,97336.80
2019-06-27T02:45:39.583Z,97339.79
2019-06-27T02:50:34.244Z,97342.52
2019-06-27T02:55:29.599Z,97341.50
2019-06-27T03:00:24.838Z,97345.55
2019-06-27T03:05:20.057Z,97346.16
2019-06-27T03:10:16.454Z,97360.66
2019-06-27T03:15:13.191Z,97370.55
2019-06-27T03:20:11.937Z,97372.20
2019-06-27T03:25:07.449Z,97370.88
2019-06-27T03:30:02.087Z,97369.33
2019-06-27T03:34:56.681Z,97380.48
2019-06-27T03:39:51.350Z,97379.15
2019-06-27T03:44:45.967Z,97379.72
2019-06-27T03:49:40.575Z,97386.36
2019-06-27T03:54:35.169Z,97387.87
2019-06-27T03:59:29.793Z,97383.20
2019-06-27T04:04:24.405Z,97383.44
2019-06-27T04:09:19.341Z,97385.64
2019-06-27T04:14:13.961Z,97394.28
2019-06-27T04:19:09.067Z,97393.48
2019-06-27T04:24:03.753Z,97383.76
2019-06-27T04:28:58.368Z,97389.27
2019-06-27T04:33:52.959Z,97388.36
2019-06-27T04:38:47.616Z,97393.04
2019-06-27T04:43:42.283Z,97387.66
2019-06-27T04:48:36.894Z,97391.46
2019-06-27T04:53:31.504Z,97393.95
2019-06-27T04:58:26.102Z,97387.53
2019-06-27T05:03:20.719Z,97389.44
2019-06-27T05:08:15.332Z,97389.83
2019-06-27T05:13:09.939Z,97386.05
2019-06-27T05:18:04.564Z,97377.73
2019-06-27T05:22:59.183Z,97377.80
2019-06-27T05:27:54.899Z,97371.23
2019-06-27T05:32:49.495Z,97362.63
2019-06-27T05:37:44.097Z,97363.08
2019-06-27T05:42:38.703Z,97375.07
2019-06-27T05:47:33.291Z,97371.36
2019-06-27T05:52:27.932Z,97376.67
2019-06-27T05:57:22.540Z,97371.66
2019-06-27T06:02:17.178Z,97385.97
2019-06-27T06:07:11.779Z,97392.64
2019-06-27T06:12:06.387Z,97395.25
2019-06-27T06:17:01.402Z,97387.44
2019-06-27T06:21:56.026Z,97389.98
2019-06-27T06:26:53.672Z,97398.00
2019-06-27T06:31:51.482Z,97399.67
2019-06-27T06:36:49.077Z,97402.47
2019-06-27T06:41:43.659Z,97393.11
2019-06-27T06:46:38.263Z,97392.64
2019-06-27T06:51:33.480Z,97382.83
2019-06-27T06:56:29.087Z,97379.25
2019-06-27T07:01:24.270Z,97387.62
2019-06-27T07:06:19.390Z,97393.06
2019-06-27T07:11:13.976Z,97387.03
2019-06-27T07:16:08.578Z,97400.50
2019-06-27T07:21:03.288Z,97396.66
2019-06-27T07:25:57.863Z,97395.20
2019-06-27T07:30:52.608Z,97395.13
2019-06-27T07:35:47.385Z,97393.27
2019-06-27T07:40:42.344Z,97394.41
2019-06-27T07:45:43.447Z,97398.35
2019-06-27T07:50:38.327Z,97394.17
2019-06-27T07:55:33.694Z,97389.45
2019-06-27T08:00:28.467Z,97389.69
2019-06-27T08:05:23.693Z,97381.66
2019-06-27T08:10:18.933Z,97385.80
2019-06-27T08:15:14.571Z,97371.65
2019-06-27T08:20:09.576Z,97373.98
2019-06-27T08:25:07.253Z,97382.78
2019-06-27T08:30:02.082Z,97376.20
2019-06-27T08:34:57.030Z,97375.62
2019-06-27T08:39:51.720Z,97362.44
2019-06-27T08:44:46.992Z,97370.95
2019-06-27T08:49:41.947Z,97363.27
2019-06-27T08:54:40.182Z,97370.28
2019-06-27T08:59:34.948Z,97363.73
2019-06-27T09:04:30.028Z,97357.88
2019-06-27T09:09:24.832Z,97361.80
2019-06-27T09:14:21.802Z,97363.41
2019-06-27T09:19:17.255Z,97357.33
2019-06-27T09:24:12.052Z,97363.02
2019-06-27T09:29:06.869Z,97365.11
2019-06-27T09:34:06.012Z,97363.27
2019-06-27T09:39:00.987Z,97360.38
2019-06-27T09:43:55.623Z,97358.52
2019-06-27T09:48:50.396Z,97358.80
2019-06-27T09:53:45.038Z,97357.27
2019-06-27T09:58:39.633Z,97363.08
2019-06-27T10:03:34.233Z,97363.70
2019-06-27T10:08:28.830Z,97365.00
2019-06-27T10:13:23.451Z,97362.13
2019-06-27T10:18:18.029Z,97356.29
2019-06-27T10:23:13.704Z,97354.77
2019-06-27T10:28:08.579Z,97357.11
2019-06-27T10:33:03.271Z,97345.03
2019-06-27T10:37:58.051Z,97341.33
2019-06-27T10:42:52.725Z,97338.05
2019-06-27T10:47:48.067Z,97336.16
2019-06-27T10:52:42.814Z,97325.33
2019-06-27T10:57:37.400Z,97327.14
2019-06-27T11:02:31.965Z,97323.55
2019-06-27T11:07:26.564Z,97319.66
2019-06-27T11:12:21.716Z,97318.17
2019-06-27T11:17:16.364Z,97306.28
2019-06-27T11:22:11.062Z,97310.55
2019-06-27T11:27:05.719Z,97301.13
2019-06-27T11:32:04.861Z,97291.45
2019-06-27T11:36:59.616Z,97286.91
2019-06-27T11:41:54.224Z,97280.73
2019-06-27T11:46:48.970Z,97274.00
2019-06-27T11:51:43.563Z,97277.45
2019-06-27T11:56:38.238Z,97279.37
2019-06-27T12:01:32.920Z,97278.38
2019-06-27T12:06:27.555Z,97268.80
2019-06-27T12:11:22.187Z,97264.34
2019-06-27T12:16:16.783Z,97261.45
2019-06-27T12:21:11.415Z,97251.27
2019-06-27T12:26:06.666Z,97249.44
2019-06-27T12:31:10.323Z,97244.27
2019-06-27T12:35:58.207Z,97240.32
2019-06-27T12:40:52.793Z,97241.17
2019-06-27T12:45:47.404Z,97232.47
2019-06-27T12:50:42.318Z,97223.77
2019-06-27T12:55:37.186Z,97227.91
2019-06-27T13:00:31.789Z,97224.91
2019-06-27T13:05:32.354Z,97218.72
2019-06-27T13:10:35.739Z,97211.23
2019-06-27T13:15:29.949Z,97212.02
2019-06-27T13:20:25.409Z,97207.18
2019-06-27T13:25:21.046Z,97205.00
2019-06-27T13:30:16.052Z,97204.59
2019-06-27T13:35:11.613Z,97205.36
2019-06-27T13:40:08.368Z,97196.77
2019-06-27T13:45:03.354Z,97192.17
2019-06-27T13:49:57.986Z,97192.34
2019-06-27T13:54:52.681Z,97190.47
2019-06-27T13:59:47.507Z,97187.16
2019-06-27T14:04:56.736Z,97180.92
2019-06-27T14:09:52.229Z,97176.28
2019-06-27T14:14:36.148Z,97175.42
2019-06-27T14:19:30.772Z,97171.69
2019-06-27T14:24:25.368Z,97163.19
2019-06-27T14:29:19.958Z,97162.52
2019-06-27T14:34:14.848Z,97159.52
2019-06-27T14:39:10.488Z,97156.13
2019-06-27T14:44:05.164Z,97153.40
2019-06-27T14:48:59.833Z,97155.99
2019-06-27T14:53:54.490Z,97150.61
2019-06-27T14:58:49.117Z,97150.45
2019-06-27T15:03:43.769Z,97140.93
2019-06-27T15:08:38.353Z,97132.18
2019-06-27T15:13:33.029Z,97124.80
2019-06-27T15:18:27.620Z,97127.80
2019-06-27T15:23:22.289Z,97128.59
2019-06-27T15:28:16.908Z,97131.92
2019-06-27T15:33:11.513Z,97128.52
2019-06-27T15:38:06.111Z,97126.11
2019-06-27T15:43:03.727Z,97127.91
2019-06-27T15:48:04.416Z,97125.88
2019-06-27T15:53:05.374Z,97115.67
2019-06-27T15:58:10.317Z,97115.55
2019-06-27T16:03:10.277Z,97117.68
2019-06-27T16:08:05.290Z,97109.02
2019-06-27T16:13:02.402Z,97107.66
2019-06-27T16:17:56.179Z,97101.95
2019-06-27T16:22:50.786Z,97101.34
2019-06-27T16:27:45.379Z,97096.31
2019-06-27T16:32:39.968Z,97096.74
2019-06-27T16:37:34.559Z,97091.83
2019-06-27T16:42:29.166Z,97090.52
2019-06-27T16:47:23.752Z,97085.91
2019-06-27T16:52:18.343Z,97088.61
2019-06-27T16:57:12.989Z,97088.38
2019-06-27T17:02:08.381Z,97092.82
2019-06-27T17:07:02.960Z,97087.37
2019-06-27T17:11:57.554Z,97085.35
2019-06-27T17:16:52.227Z,97085.26
2019-06-27T17:21:46.824Z,97094.52
2019-06-27T17:26:41.412Z,97091.74
2019-06-27T17:31:36.010Z,97101.98
2019-06-27T17:36:30.607Z,97104.70
2019-06-27T17:41:25.216Z,97103.00
2019-06-27T17:46:19.800Z,97107.58
2019-06-27T17:51:14.397Z,97105.09
2019-06-27T17:56:08.998Z,97108.26
2019-06-27T18:01:03.652Z,97109.94
2019-06-27T18:05:58.238Z,97107.48
2019-06-27T18:10:52.836Z,97108.41
2019-06-27T18:15:47.437Z,97114.27
2019-06-27T18:20:42.017Z,97116.23
2019-06-27T18:25:36.615Z,97117.90
2019-06-27T18:30:31.218Z,97123.47
2019-06-27T18:35:25.808Z,97127.28
2019-06-27T18:40:22.315Z,97136.05
2019-06-27T18:45:17.281Z,97134.48
2019-06-27T18:50:12.675Z,97126.89
2019-06-27T18:55:07.574Z,97132.84
2019-06-27T19:00:02.319Z,97137.94
2019-06-27T19:04:57.061Z,97144.32
2019-06-27T19:09:51.635Z,97153.39
2019-06-27T19:14:46.229Z,97153.57
2019-06-27T19:19:42.455Z,97168.81
2019-06-27T19:24:54.115Z,97171.62
2019-06-27T19:29:48.699Z,97179.83
2019-06-27T19:34:43.383Z,97184.80
2019-06-27T19:39:38.230Z,97196.01
2019-06-27T19:44:32.827Z,97199.20
2019-06-27T19:49:27.401Z,97206.81
2019-06-27T19:54:22.096Z,97207.61
2019-06-27T19:59:17.035Z,97218.80
2019-06-27T20:04:11.654Z,97224.77
2019-06-27T20:09:06.786Z,97231.67
2019-06-27T20:14:02.153Z,97231.72
2019-06-27T20:18:56.811Z,97234.94
2019-06-27T20:23:51.406Z,97241.46
2019-06-27T20:28:46.066Z,97247.61
2019-06-27T20:33:40.666Z,97257.67
2019-06-27T20:38:35.597Z,97252.14
2019-06-27T20:43:30.368Z,97263.33
2019-06-27T20:48:25.366Z,97260.72
2019-06-27T20:53:19.959Z,97267.06
2019-06-27T20:58:14.550Z,97266.02
2019-06-27T21:03:09.156Z,97274.91
2019-06-27T21:08:03.739Z,97276.95
2019-06-27T21:12:58.403Z,97297.19
2019-06-27T21:17:53.000Z,97293.74
2019-06-27T21:22:47.622Z,97300.89
2019-06-27T21:27:42.260Z,97310.21
2019-06-27T21:32:36.870Z,97307.54
2019-06-27T21:37:31.465Z,97309.67
2019-06-27T21:42:26.042Z,97320.02
2019-06-27T21:47:20.655Z,97322.34
2019-06-27T21:52:15.248Z,97322.58
2019-06-27T21:57:09.853Z,97327.88
2019-06-27T22:02:04.901Z,97324.66
2019-06-27T22:06:59.506Z,97331.46
2019-06-27T22:11:54.168Z,97332.11
2019-06-27T22:16:48.826Z,97326.46
2019-06-27T22:21:43.414Z,97317.97
2019-06-27T22:26:38.011Z,97319.23
2019-06-27T22:31:32.580Z,97322.05
2019-06-27T22:36:27.179Z,97327.59
2019-06-27T22:41:39.819Z,97327.42
2019-06-27T22:46:52.471Z,97320.84
2019-06-27T22:51:58.115Z,97322.52
2019-06-27T22:56:52.714Z,97323.25
2019-06-27T23:01:47.359Z,97320.23
2019-06-27T23:06:41.949Z,97323.16
2019-06-27T23:11:36.524Z,97318.19
2019-06-27T23:16:31.187Z,97322.66
2019-06-27T23:21:25.756Z,97320.86
2019-06-27T23:26:20.355Z,97328.02
2019-06-27T23:31:15.031Z,97315.48
2019-06-27T23:36:09.627Z,97323.20
2019-06-27T23:41:04.214Z,97321.80
2019-06-27T23:45:58.798Z,97327.37
2019-06-27T23:50:53.384Z,97320.82
2019-06-27T23:55:47.964Z,97313.92
